Time;durP1;ratioP1;P1;durP2;ratioP2;P2;SDS_P1;SDS_P2;PMS_P1;PMS_P2;Temp;Humidity;BMP_temperature;BMP_pressure;BME280_temperature;BME280_humidity;BME280_pressure;Samples;Min_cycle;Max_cycle;Signal;HPM_P1;HPM_P2
2023/04/06 00:01:10;;;;;;;5.63;5.13;;;0.20;99.90;;;;;;5026590;28;20203;-74
2023/04/06 00:03:35;;;;;;;5.17;4.70;;;0.20;99.90;;;;;;5032223;28;20235;-75
2023/04/06 00:06:01;;;;;;;5.20;4.77;;;0.30;99.90;;;;;;5052804;28;20223;-75
2023/04/06 00:08:27;;;;;;;6.50;4.90;;;0.20;99.90;;;;;;5044964;28;20191;-74
2023/04/06 00:10:53;;;;;;;5.87;4.87;;;0.10;99.90;;;;;;5053537;28;20199;-74
2023/04/06 00:13:18;;;;;;;6.93;4.93;;;0.10;99.90;;;;;;5045584;28;20209;-74
2023/04/06 00:15:44;;;;;;;5.27;4.77;;;0.10;99.90;;;;;;5048780;28;20716;-74
2023/04/06 00:18:10;;;;;;;5.80;5.27;;;0.10;99.90;;;;;;5046799;28;20618;-74
2023/04/06 00:20:35;;;;;;;9.37;4.50;;;0.10;99.90;;;;;;5037871;28;20193;-74
2023/04/06 00:23:01;;;;;;;7.07;6.33;;;0.10;99.90;;;;;;5051128;28;20191;-75
2023/04/06 00:25:27;;;;;;;4.97;4.57;;;0.10;99.90;;;;;;5052351;28;20754;-74
2023/04/06 00:27:52;;;;;;;4.93;4.50;;;0.00;99.90;;;;;;5043226;28;20181;-74
2023/04/06 00:30:18;;;;;;;6.10;5.47;;;0.10;99.90;;;;;;5042398;28;20175;-74
2023/04/06 00:32:44;;;;;;;8.43;5.40;;;0.10;99.90;;;;;;5034661;28;20748;-73
2023/04/06 00:35:10;;;;;;;4.97;4.43;;;0.20;99.90;;;;;;5047714;28;20230;-74
2023/04/06 00:37:36;;;;;;;4.80;4.40;;;0.30;99.90;;;;;;5046904;28;20161;-74
2023/04/06 00:40:02;;;;;;;6.53;5.30;;;0.30;99.90;;;;;;5046777;28;20272;-75
2023/04/06 00:42:28;;;;;;;5.87;4.77;;;0.30;99.90;;;;;;5050226;28;20179;-74
2023/04/06 00:44:55;;;;;;;5.50;5.00;;;0.20;99.90;;;;;;5046698;28;20179;-74
2023/04/06 00:47:22;;;;;;;4.87;4.40;;;0.20;99.90;;;;;;5051964;28;20203;-72
2023/04/06 00:49:48;;;;;;;5.27;4.40;;;0.20;99.90;;;;;;5049583;28;20184;-74
2023/04/06 00:52:13;;;;;;;5.53;4.60;;;0.20;99.90;;;;;;5047986;28;20284;-75
2023/04/06 00:54:39;;;;;;;5.33;4.70;;;0.10;99.90;;;;;;5039378;28;20547;-75
2023/04/06 00:57:05;;;;;;;5.97;5.37;;;0.10;99.90;;;;;;5040219;28;20180;-75
2023/04/06 00:59:31;;;;;;;5.53;5.03;;;0.10;99.90;;;;;;5042038;28;20183;-75
2023/04/06 01:01:57;;;;;;;4.63;4.23;;;0.10;99.90;;;;;;5046118;28;20674;-75
2023/04/06 01:04:23;;;;;;;5.77;4.77;;;0.10;99.90;;;;;;5043835;28;20566;-75
2023/04/06 01:06:50;;;;;;;7.43;5.53;;;0.00;99.90;;;;;;5047848;28;20198;-72
2023/04/06 01:09:18;;;;;;;5.60;5.00;;;0.00;99.90;;;;;;5048905;28;20770;-75
2023/04/06 01:11:44;;;;;;;7.93;4.53;;;-0.10;99.90;;;;;;5048289;28;20177;-72
2023/04/06 01:14:10;;;;;;;4.87;4.47;;;-0.20;99.90;;;;;;5045588;28;20617;-72
2023/04/06 01:16:36;;;;;;;6.70;4.83;;;-0.20;99.90;;;;;;5050048;28;20666;-72
2023/04/06 01:19:11;;;;;;;6.43;4.83;;;-0.10;99.90;;;;;;5048149;28;20224;-72
2023/04/06 01:21:37;;;;;;;4.70;4.30;;;-0.10;99.90;;;;;;5047471;28;20175;-72
2023/04/06 01:24:04;;;;;;;6.33;4.43;;;-0.10;99.90;;;;;;5046904;28;20230;-72
2023/04/06 01:26:30;;;;;;;7.47;4.97;;;-0.10;99.90;;;;;;5050469;28;20204;-72
2023/04/06 01:28:56;;;;;;;6.30;4.30;;;-0.10;99.90;;;;;;5041120;28;20176;-72
2023/04/06 01:31:22;;;;;;;5.93;4.70;;;-0.10;99.90;;;;;;5045188;28;20639;-73
2023/04/06 01:33:48;;;;;;;6.20;5.07;;;-0.20;99.90;;;;;;5052190;28;20207;-72
2023/04/06 01:36:14;;;;;;;5.63;4.93;;;-0.30;99.90;;;;;;5050758;28;20210;-72
2023/04/06 01:38:41;;;;;;;5.33;4.73;;;-0.30;99.90;;;;;;5049481;28;20230;-72
2023/04/06 01:41:07;;;;;;;5.37;4.70;;;-0.30;99.90;;;;;;5036049;28;20180;-71
2023/04/06 01:43:33;;;;;;;4.60;4.20;;;-0.40;99.90;;;;;;5034927;28;20192;-72
2023/04/06 01:45:59;;;;;;;5.03;4.63;;;-0.40;99.90;;;;;;5053386;28;20252;-71
2023/04/06 01:48:25;;;;;;;5.23;4.73;;;-0.50;99.90;;;;;;5047254;28;20552;-72
2023/04/06 01:50:51;;;;;;;6.00;5.20;;;-0.50;99.90;;;;;;5048104;28;20533;-72
2023/04/06 01:53:17;;;;;;;5.23;4.77;;;-0.50;99.90;;;;;;5055137;28;20538;-72
2023/04/06 01:55:42;;;;;;;5.67;4.37;;;-0.60;99.90;;;;;;5055787;28;20255;-72
2023/04/06 01:58:08;;;;;;;6.20;4.77;;;-0.60;99.90;;;;;;5045812;28;20603;-72
2023/04/06 02:00:34;;;;;;;6.07;4.50;;;-0.50;99.90;;;;;;5045196;28;20636;-71
2023/04/06 02:02:59;;;;;;;6.07;4.80;;;-0.50;99.90;;;;;;5042787;28;20617;-72
2023/04/06 02:05:25;;;;;;;5.83;4.57;;;-0.40;99.90;;;;;;5047602;28;20303;-72
2023/04/06 02:07:51;;;;;;;5.53;4.50;;;-0.30;99.90;;;;;;5049542;28;20184;-72
2023/04/06 02:10:17;;;;;;;6.47;4.87;;;-0.30;99.90;;;;;;5048760;28;20180;-72
2023/04/06 02:12:43;;;;;;;5.87;4.83;;;-0.30;99.90;;;;;;5044559;28;20204;-73
2023/04/06 02:15:09;;;;;;;4.97;4.57;;;-0.30;99.90;;;;;;5047382;28;20658;-72
2023/04/06 02:17:35;;;;;;;6.20;5.10;;;-0.30;99.90;;;;;;5050935;28;20172;-72
2023/04/06 02:20:00;;;;;;;6.17;4.90;;;-0.30;99.90;;;;;;5036519;28;20188;-72
2023/04/06 02:22:26;;;;;;;8.13;4.73;;;-0.40;99.90;;;;;;5032086;28;20218;-72
2023/04/06 02:24:52;;;;;;;5.80;4.77;;;-0.30;99.90;;;;;;5048082;28;20643;-72
2023/04/06 02:27:17;;;;;;;5.10;4.67;;;-0.30;99.90;;;;;;5051531;28;20207;-73
2023/04/06 02:29:43;;;;;;;6.13;4.30;;;-0.20;99.90;;;;;;5048737;28;20628;-73
2023/04/06 02:32:08;;;;;;;5.37;4.73;;;-0.20;99.90;;;;;;5043543;28;20639;-73
2023/04/06 02:34:34;;;;;;;6.70;5.10;;;-0.30;99.90;;;;;;5044183;28;20211;-73
2023/04/06 02:37:00;;;;;;;5.10;4.60;;;-0.30;99.90;;;;;;5050129;28;20187;-72
2023/04/06 02:39:26;;;;;;;4.73;4.33;;;-0.30;99.90;;;;;;5051398;28;20226;-73
2023/04/06 02:41:51;;;;;;;6.83;5.07;;;-0.40;99.90;;;;;;5046134;28;20192;-72
2023/04/06 02:44:18;;;;;;;5.40;4.60;;;-0.40;99.90;;;;;;5045162;28;20207;-73
2023/04/06 02:46:44;;;;;;;5.13;4.63;;;-0.40;99.90;;;;;;5050604;28;20596;-72
2023/04/06 02:49:09;;;;;;;6.43;4.40;;;-0.40;99.90;;;;;;5044438;28;20183;-72
2023/04/06 02:51:35;;;;;;;6.67;4.57;;;-0.50;99.90;;;;;;5050864;28;20221;-72
2023/04/06 02:54:01;;;;;;;6.17;4.73;;;-0.50;99.90;;;;;;5061016;28;20195;-72
2023/04/06 02:56:26;;;;;;;4.93;4.53;;;-0.50;99.90;;;;;;5049372;28;20255;-72
2023/04/06 02:58:52;;;;;;;5.60;5.07;;;-0.50;99.90;;;;;;5048729;28;20252;-72
2023/04/06 03:01:17;;;;;;;4.83;4.30;;;-0.50;99.90;;;;;;5032815;28;20271;-73
2023/04/06 03:03:43;;;;;;;4.77;4.43;;;-0.60;99.90;;;;;;5049215;28;20264;-73
2023/04/06 03:06:09;;;;;;;5.20;4.70;;;-0.60;99.90;;;;;;5039264;28;20646;-72
2023/04/06 03:08:35;;;;;;;5.40;4.70;;;-0.60;99.90;;;;;;5046453;28;20537;-72
2023/04/06 03:11:00;;;;;;;5.23;4.73;;;-0.60;99.90;;;;;;5049262;28;20574;-72
2023/04/06 03:13:26;;;;;;;4.83;4.43;;;-0.60;99.90;;;;;;5030599;28;20203;-72
2023/04/06 03:15:51;;;;;;;5.23;4.70;;;-0.70;99.90;;;;;;5044571;28;20197;-72
2023/04/06 03:18:22;;;;;;;5.23;4.73;;;-0.70;99.90;;;;;;5040057;28;20660;-72
2023/04/06 03:20:48;;;;;;;5.60;4.80;;;-0.70;99.90;;;;;;5045361;28;20229;-72
2023/04/06 03:23:14;;;;;;;5.30;4.90;;;-0.70;99.90;;;;;;5049736;28;20203;-73
2023/04/06 03:25:39;;;;;;;5.50;5.00;;;-0.80;99.90;;;;;;5048042;28;20205;-71
2023/04/06 03:28:05;;;;;;;4.97;4.33;;;-0.80;99.90;;;;;;5053053;28;20171;-72
2023/04/06 03:30:31;;;;;;;5.27;4.77;;;-0.90;99.90;;;;;;5032679;28;20266;-71
2023/04/06 03:32:56;;;;;;;5.10;4.60;;;-0.90;99.90;;;;;;5041563;28;20200;-71
2023/04/06 03:35:22;;;;;;;5.43;4.93;;;-0.90;99.90;;;;;;5043950;28;20636;-72
2023/04/06 03:37:47;;;;;;;5.60;5.03;;;-0.90;99.90;;;;;;5048805;28;20204;-71
2023/04/06 03:40:13;;;;;;;6.43;5.70;;;-0.90;99.90;;;;;;5047020;28;20635;-71
2023/04/06 03:42:39;;;;;;;6.00;5.40;;;-0.90;99.90;;;;;;5047124;28;20196;-72
2023/04/06 03:45:05;;;;;;;6.30;5.70;;;-0.90;99.90;;;;;;5047410;28;20216;-71
2023/04/06 03:47:30;;;;;;;6.70;5.43;;;-0.90;99.90;;;;;;5046886;28;20238;-72
2023/04/06 03:49:56;;;;;;;5.50;5.03;;;-0.90;99.90;;;;;;5049990;28;20259;-72
2023/04/06 03:52:22;;;;;;;5.13;4.73;;;-0.90;99.90;;;;;;5029834;28;20545;-72
2023/04/06 03:54:48;;;;;;;6.13;4.87;;;-0.90;99.90;;;;;;5046760;28;20192;-71
2023/04/06 03:57:14;;;;;;;5.27;4.77;;;-0.80;99.90;;;;;;5049659;28;20179;-71
2023/04/06 03:59:40;;;;;;;5.47;4.93;;;-0.80;99.90;;;;;;5052229;28;20175;-71
2023/04/06 04:02:05;;;;;;;5.13;4.40;;;-0.90;99.90;;;;;;5043386;28;20214;-72
2023/04/06 04:04:31;;;;;;;5.57;5.07;;;-0.90;99.90;;;;;;5045165;28;20210;-72
2023/04/06 04:06:56;;;;;;;5.57;5.00;;;-0.90;99.90;;;;;;5046624;28;20207;-72
2023/04/06 04:09:22;;;;;;;6.90;4.63;;;-1.00;99.90;;;;;;5048726;28;20574;-72
2023/04/06 04:11:48;;;;;;;7.47;5.23;;;-1.00;99.90;;;;;;5046076;28;20535;-72
2023/04/06 04:14:13;;;;;;;6.07;5.23;;;-1.10;99.90;;;;;;5045763;28;20215;-73
2023/04/06 04:16:39;;;;;;;5.87;4.87;;;-1.10;99.90;;;;;;5051363;28;20652;-72
2023/04/06 04:19:05;;;;;;;5.93;5.00;;;-1.20;99.90;;;;;;5048445;28;20179;-73
2023/04/06 04:21:31;;;;;;;8.50;5.57;;;-1.10;99.90;;;;;;5045355;28;20224;-72
2023/04/06 04:23:57;;;;;;;5.43;4.93;;;-1.10;99.90;;;;;;5049954;28;20329;-71
2023/04/06 04:26:23;;;;;;;6.03;5.43;;;-1.10;99.90;;;;;;5052617;28;20274;-72
2023/04/06 04:28:48;;;;;;;5.60;4.97;;;-1.10;99.90;;;;;;5051053;28;20188;-72
2023/04/06 04:31:14;;;;;;;6.10;5.50;;;-1.10;99.90;;;;;;5055573;28;20175;-72
2023/04/06 04:33:40;;;;;;;5.50;5.10;;;-1.00;99.90;;;;;;5047108;28;20682;-72
2023/04/06 04:36:05;;;;;;;7.17;5.60;;;-1.00;99.90;;;;;;5047116;28;20324;-71
2023/04/06 04:38:31;;;;;;;7.57;4.87;;;-1.00;99.90;;;;;;5036905;28;20271;-71
2023/04/06 04:40:57;;;;;;;5.77;5.13;;;-1.00;99.90;;;;;;5046334;28;20184;-71
2023/04/06 04:43:22;;;;;;;6.03;4.70;;;-0.90;99.90;;;;;;5031395;28;20202;-71
2023/04/06 04:45:48;;;;;;;5.73;5.23;;;-0.90;99.90;;;;;;5040582;28;20216;-71
2023/04/06 04:48:14;;;;;;;5.80;5.27;;;-0.90;99.90;;;;;;5042101;28;20643;-70
2023/04/06 04:50:39;;;;;;;6.07;5.43;;;-0.90;99.90;;;;;;5041096;28;20639;-71
2023/04/06 04:53:05;;;;;;;5.73;5.10;;;-0.90;99.90;;;;;;5046101;28;20192;-70
2023/04/06 04:55:31;;;;;;;9.30;5.03;;;-0.90;99.90;;;;;;5047154;28;20640;-71
2023/04/06 04:57:57;;;;;;;7.70;5.87;;;-1.00;99.90;;;;;;5043287;28;20273;-71
2023/04/06 05:00:23;;;;;;;7.23;6.40;;;-1.00;99.90;;;;;;5043639;28;20185;-72
2023/04/06 05:02:48;;;;;;;6.37;5.77;;;-0.90;99.90;;;;;;5029461;28;20251;-72
2023/04/06 05:05:14;;;;;;;8.00;7.03;;;-0.90;99.90;;;;;;5051975;28;20187;-75
2023/04/06 05:07:40;;;;;;;8.13;6.97;;;-0.80;99.90;;;;;;5048855;28;20675;-73
2023/04/06 05:10:06;;;;;;;8.67;7.13;;;-0.70;99.90;;;;;;5044127;28;20627;-72
2023/04/06 05:12:31;;;;;;;8.57;6.93;;;-0.70;99.90;;;;;;5046200;28;20199;-73
2023/04/06 05:14:57;;;;;;;7.03;6.43;;;-0.50;99.90;;;;;;5053342;28;20198;-73
2023/04/06 05:17:23;;;;;;;8.67;6.60;;;-0.30;99.90;;;;;;5043661;28;20191;-73
2023/04/06 05:19:48;;;;;;;6.87;6.17;;;-0.20;99.90;;;;;;5035147;28;20207;-73
2023/04/06 05:22:17;;;;;;;8.73;6.00;;;-0.10;99.90;;;;;;5049777;28;20215;-74
2023/04/06 05:24:43;;;;;;;7.10;6.10;;;0.00;99.90;;;;;;5048004;28;20176;-72
2023/04/06 05:27:08;;;;;;;6.80;5.80;;;0.10;99.90;;;;;;5047926;28;20570;-72
2023/04/06 05:29:34;;;;;;;9.13;5.53;;;0.10;99.90;;;;;;5052602;28;20253;-72
2023/04/06 05:32:00;;;;;;;7.93;5.47;;;0.20;99.90;;;;;;5061741;28;20184;-74
2023/04/06 05:34:26;;;;;;;7.37;6.27;;;0.10;99.90;;;;;;5050162;28;20306;-72
2023/04/06 05:36:52;;;;;;;6.50;5.87;;;0.10;99.90;;;;;;5048703;28;20701;-72
2023/04/06 05:39:17;;;;;;;7.13;6.17;;;0.10;99.90;;;;;;5051321;28;20258;-72
2023/04/06 05:41:43;;;;;;;7.50;6.37;;;0.10;99.90;;;;;;5051905;28;20752;-71
2023/04/06 05:44:08;;;;;;;7.83;6.60;;;0.10;99.90;;;;;;5051159;28;20211;-72
2023/04/06 05:46:34;;;;;;;10.27;6.83;;;0.20;99.90;;;;;;5047402;28;20207;-73
2023/04/06 05:49:00;;;;;;;8.23;6.73;;;0.30;99.90;;;;;;5051986;28;20172;-73
2023/04/06 05:51:27;;;;;;;11.27;6.30;;;0.30;99.90;;;;;;5045875;28;20184;-72
2023/04/06 05:53:53;;;;;;;9.33;6.30;;;0.40;99.90;;;;;;5049291;28;20231;-71
2023/04/06 05:56:18;;;;;;;9.73;6.30;;;0.40;99.90;;;;;;5054440;28;20219;-74
2023/04/06 05:58:44;;;;;;;8.47;6.33;;;0.40;99.90;;;;;;5055577;28;20191;-74
2023/04/06 06:01:10;;;;;;;8.07;6.10;;;0.50;99.90;;;;;;5045769;28;20221;-74
2023/04/06 06:03:36;;;;;;;6.73;5.90;;;0.60;99.90;;;;;;5053006;28;20215;-74
2023/04/06 06:06:03;;;;;;;7.17;6.20;;;0.60;99.90;;;;;;5050928;28;20286;-74
2023/04/06 06:08:29;;;;;;;8.90;6.40;;;0.70;99.90;;;;;;5033380;28;20367;-75
2023/04/06 06:10:55;;;;;;;8.33;6.30;;;0.80;99.90;;;;;;5052014;28;20289;-74
2023/04/06 06:13:22;;;;;;;9.50;6.73;;;0.80;99.90;;;;;;5033029;28;20207;-75
2023/04/06 06:15:47;;;;;;;9.57;6.90;;;0.90;99.90;;;;;;5052131;28;20594;-74
2023/04/06 06:18:13;;;;;;;9.43;6.30;;;1.00;99.90;;;;;;5046657;28;20195;-75
2023/04/06 06:20:39;;;;;;;10.23;6.87;;;1.10;99.90;;;;;;5044722;28;20204;-74
2023/04/06 06:23:04;;;;;;;6.50;5.90;;;1.20;99.90;;;;;;5055657;28;20235;-73
2023/04/06 06:25:33;;;;;;;10.07;6.17;;;1.30;99.90;;;;;;5044752;28;20192;-74
2023/04/06 06:27:59;;;;;;;8.90;6.10;;;1.50;99.90;;;;;;5049387;28;20270;-74
2023/04/06 06:30:25;;;;;;;8.83;7.40;;;1.50;99.90;;;;;;5045839;28;20195;-75
2023/04/06 06:32:51;;;;;;;7.63;6.90;;;1.50;99.90;;;;;;5039634;28;20227;-74
2023/04/06 06:35:17;;;;;;;8.43;6.83;;;1.60;99.90;;;;;;5049711;28;20222;-74
2023/04/06 06:37:43;;;;;;;9.23;6.30;;;1.70;99.90;;;;;;5053031;28;20226;-73
2023/04/06 06:40:10;;;;;;;8.53;6.37;;;1.80;99.90;;;;;;5048985;28;20179;-74
2023/04/06 06:42:36;;;;;;;6.53;5.93;;;1.80;99.90;;;;;;5052753;28;20196;-74
2023/04/06 06:45:02;;;;;;;7.70;6.67;;;1.90;99.90;;;;;;5050691;28;20183;-74
2023/04/06 06:47:28;;;;;;;7.20;5.73;;;2.00;99.90;;;;;;5048720;28;20276;-75
2023/04/06 06:49:53;;;;;;;6.43;5.70;;;2.10;99.90;;;;;;5058962;28;20179;-74
2023/04/06 06:52:19;;;;;;;6.13;5.40;;;2.30;99.90;;;;;;5053202;28;20642;-75
2023/04/06 06:54:45;;;;;;;9.00;5.50;;;2.40;99.90;;;;;;5049241;28;20183;-74
2023/04/06 06:57:10;;;;;;;6.50;5.80;;;2.50;99.90;;;;;;5051931;28;20286;-74
2023/04/06 06:59:36;;;;;;;5.60;5.07;;;2.60;99.90;;;;;;5052979;28;20631;-75
2023/04/06 07:02:02;;;;;;;5.63;5.13;;;2.70;99.90;;;;;;5045082;28;20180;-75
2023/04/06 07:04:27;;;;;;;6.57;5.30;;;2.80;99.90;;;;;;5043169;28;20199;-77
2023/04/06 07:06:53;;;;;;;6.80;5.17;;;2.90;99.90;;;;;;5044455;28;20265;-75
2023/04/06 07:09:19;;;;;;;7.93;4.83;;;2.90;99.90;;;;;;5043362;28;20180;-74
2023/04/06 07:11:44;;;;;;;6.30;4.77;;;3.10;99.90;;;;;;5050851;28;20184;-74
2023/04/06 07:14:11;;;;;;;6.10;5.17;;;3.20;99.90;;;;;;5043680;28;20196;-74
2023/04/06 07:16:37;;;;;;;7.93;5.77;;;3.30;99.90;;;;;;5048539;28;20550;-74
2023/04/06 07:19:02;;;;;;;8.23;6.27;;;3.40;99.90;;;;;;5056111;28;20183;-74
2023/04/06 07:21:28;;;;;;;5.97;5.30;;;3.50;99.90;;;;;;5046044;28;20188;-75
2023/04/06 07:23:54;;;;;;;5.60;5.07;;;3.40;99.90;;;;;;5052440;28;20249;-78
2023/04/06 07:26:20;;;;;;;5.40;4.90;;;3.50;99.90;;;;;;5048347;28;20207;-74
2023/04/06 07:28:45;;;;;;;6.87;5.17;;;3.60;99.90;;;;;;5030157;28;20719;-74
2023/04/06 07:31:12;;;;;;;5.90;5.07;;;3.70;99.90;;;;;;5029855;28;20616;-76
2023/04/06 07:33:38;;;;;;;5.60;5.17;;;3.80;99.90;;;;;;5041726;28;20203;-76
2023/04/06 07:36:04;;;;;;;6.77;5.63;;;3.90;99.90;;;;;;5048014;28;20226;-79
2023/04/06 07:38:30;;;;;;;5.23;4.73;;;4.00;99.90;;;;;;5046688;28;20184;-76
2023/04/06 07:40:55;;;;;;;7.20;5.28;;;4.10;99.90;;;;;;5044587;28;20206;-76
2023/04/06 07:43:21;;;;;;;5.83;5.17;;;4.20;99.90;;;;;;5046272;28;20772;-74
2023/04/06 07:45:47;;;;;;;7.25;5.90;;;4.30;99.90;;;;;;5042879;28;20216;-74
2023/04/06 07:48:13;;;;;;;8.48;5.43;;;4.40;99.90;;;;;;5048988;28;20175;-74
2023/04/06 07:50:38;;;;;;;7.40;5.82;;;4.30;98.90;;;;;;5049670;28;20635;-73
2023/04/06 07:53:04;;;;;;;6.50;5.00;;;4.30;99.20;;;;;;5034179;28;20195;-75
2023/04/06 07:55:30;;;;;;;6.43;5.13;;;4.50;98.50;;;;;;5045395;28;20785;-74
2023/04/06 07:57:56;;;;;;;5.88;4.60;;;4.50;98.50;;;;;;5045674;28;20187;-75
2023/04/06 08:00:21;;;;;;;5.28;4.88;;;4.70;98.10;;;;;;5042815;28;20199;-74
2023/04/06 08:02:47;;;;;;;6.43;5.13;;;4.80;97.40;;;;;;5049533;28;20778;-75
2023/04/06 08:05:13;;;;;;;5.65;4.65;;;4.80;97.20;;;;;;5047434;28;20168;-74
2023/04/06 08:07:38;;;;;;;7.07;5.13;;;5.00;97.50;;;;;;5045891;28;20207;-74
2023/04/06 08:10:04;;;;;;;5.93;4.85;;;5.00;96.40;;;;;;5046990;28;20186;-74
2023/04/06 08:12:31;;;;;;;5.30;4.80;;;5.10;95.30;;;;;;5049136;28;20179;-75
2023/04/06 08:14:57;;;;;;;5.32;4.82;;;5.20;94.90;;;;;;5049595;28;20206;-75
2023/04/06 08:17:23;;;;;;;6.10;4.65;;;5.40;94.80;;;;;;5043389;28;20211;-74
2023/04/06 08:19:49;;;;;;;4.93;4.50;;;5.40;94.20;;;;;;5049894;28;20206;-75
2023/04/06 08:22:14;;;;;;;6.18;4.57;;;5.60;94.30;;;;;;5044336;28;20179;-75
2023/04/06 08:24:40;;;;;;;5.50;4.97;;;5.70;94.10;;;;;;5033735;28;20202;-75
2023/04/06 08:27:06;;;;;;;7.75;4.95;;;5.70;93.80;;;;;;5047190;28;20583;-75
2023/04/06 08:29:32;;;;;;;7.35;4.88;;;5.80;93.50;;;;;;5046630;28;20538;-74
2023/04/06 08:31:57;;;;;;;5.78;4.75;;;5.90;93.10;;;;;;5049374;28;20681;-74
2023/04/06 08:34:23;;;;;;;5.35;4.75;;;5.90;92.70;;;;;;5045804;28;20203;-75
2023/04/06 08:36:49;;;;;;;5.05;4.60;;;6.00;92.80;;;;;;5049403;28;20183;-72
2023/04/06 08:39:15;;;;;;;5.32;4.82;;;6.10;92.70;;;;;;5046172;28;20184;-75
2023/04/06 08:41:44;;;;;;;5.72;5.22;;;6.20;94.40;;;;;;5045344;28;20185;-75
2023/04/06 08:44:11;;;;;;;9.02;4.72;;;6.40;92.20;;;;;;5048687;28;20199;-75
2023/04/06 08:46:37;;;;;;;5.57;4.63;;;6.50;91.60;;;;;;5051931;28;20205;-75
2023/04/06 08:49:06;;;;;;;5.78;4.75;;;6.70;91.10;;;;;;5048216;28;20281;-75
2023/04/06 08:51:32;;;;;;;6.32;5.38;;;6.80;90.70;;;;;;5052018;28;20168;-74
2023/04/06 08:53:59;;;;;;;5.05;4.65;;;7.00;88.60;;;;;;5047264;28;20278;-74
2023/04/06 08:56:26;;;;;;;6.97;5.40;;;7.20;88.30;;;;;;5057006;28;20187;-75
2023/04/06 08:58:53;;;;;;;9.05;4.90;;;7.40;86.00;;;;;;5050690;28;20199;-75
2023/04/06 09:01:27;;;;;;;5.18;4.68;;;7.60;86.50;;;;;;5048604;28;20188;-75
2023/04/06 09:03:57;;;;;;;5.95;5.45;;;7.90;85.80;;;;;;5042147;28;20703;-73
2023/04/06 09:06:26;;;;;;;4.38;3.97;;;8.60;83.90;;;;;;5047212;28;20614;-73
2023/04/06 09:08:52;;;;;;;5.68;4.93;;;10.30;77.50;;;;;;5051043;28;20313;-74
2023/04/06 09:11:18;;;;;;;6.57;4.88;;;12.80;71.50;;;;;;5049251;28;20625;-74
2023/04/06 09:13:50;;;;;;;4.43;4.10;;;15.10;62.70;;;;;;5046139;28;20322;-76
2023/04/06 09:16:16;;;;;;;4.65;4.13;;;17.30;56.10;;;;;;5042400;28;20212;-77
2023/04/06 09:18:42;;;;;;;4.50;4.10;;;18.90;47.80;;;;;;5047025;28;20225;-77
2023/04/06 09:21:09;;;;;;;4.78;4.38;;;20.00;45.50;;;;;;5054206;28;20199;-77
2023/04/06 09:23:35;;;;;;;4.70;4.30;;;21.00;43.60;;;;;;5036413;28;20192;-78
2023/04/06 09:26:08;;;;;;;5.07;4.13;;;22.00;41.70;;;;;;5049592;28;20208;-76
2023/04/06 09:28:51;;;;;;;4.50;4.10;;;22.90;39.60;;;;;;5053647;28;20207;-77
2023/04/06 09:31:23;;;;;;;4.00;3.70;;;23.60;39.20;;;;;;5047794;28;20210;-77
2023/04/06 09:33:49;;;;;;;4.30;3.90;;;24.20;38.40;;;;;;5056992;28;20629;-78
2023/04/06 09:36:17;;;;;;;5.82;4.40;;;24.10;35.40;;;;;;5047245;28;20251;-78
2023/04/06 09:38:56;;;;;;;4.03;3.70;;;24.70;35.20;;;;;;5042148;28;20618;-78
2023/04/06 09:41:23;;;;;;;3.97;3.67;;;25.30;33.70;;;;;;5046622;28;20176;-79
2023/04/06 09:44:02;;;;;;;4.18;3.88;;;25.40;33.70;;;;;;5044277;28;20253;-80
2023/04/06 09:46:30;;;;;;;4.57;4.20;;;25.30;34.20;;;;;;5059355;28;20199;-80
2023/04/06 09:48:57;;;;;;;3.92;3.47;;;25.50;34.60;;;;;;5036301;28;21479;-80
2023/04/06 09:51:25;;;;;;;4.35;4.05;;;26.50;34.40;;;;;;5052892;28;20206;-80
2023/04/06 09:53:53;;;;;;;3.55;3.35;;;27.20;32.80;;;;;;5049449;28;20703;-80
2023/04/06 09:56:27;;;;;;;5.30;3.88;;;27.40;32.00;;;;;;5055844;28;20183;-81
2023/04/06 09:58:56;;;;;;;4.22;3.88;;;27.70;31.60;;;;;;5053548;28;20538;-75
2023/04/06 10:01:25;;;;;;;3.60;3.40;;;27.80;31.30;;;;;;5053217;28;20234;-76
2023/04/06 10:03:58;;;;;;;4.15;3.85;;;28.20;30.50;;;;;;5044313;28;20215;-76
2023/04/06 10:06:28;;;;;;;4.53;4.13;;;28.70;30.80;;;;;;5030151;28;20214;-76
2023/04/06 10:08:56;;;;;;;4.38;3.85;;;29.20;30.00;;;;;;5050390;28;20176;-77
2023/04/06 10:11:22;;;;;;;4.70;4.20;;;29.10;30.00;;;;;;5048216;28;20277;-76
2023/04/06 10:13:49;;;;;;;4.35;4.00;;;28.10;29.60;;;;;;5051163;28;20259;-76
2023/04/06 10:16:16;;;;;;;4.50;4.10;;;27.10;30.80;;;;;;5047555;28;20183;-75
2023/04/06 10:18:47;;;;;;;4.38;4.07;;;26.70;30.20;;;;;;5049166;28;20715;-75
2023/04/06 10:21:18;;;;;;;4.53;4.22;;;27.40;30.90;;;;;;5042532;28;20283;-76
2023/04/06 10:23:57;;;;;;;4.07;3.78;;;27.90;29.90;;;;;;5052449;28;20200;-75
2023/04/06 10:26:23;;;;;;;3.95;3.75;;;28.20;30.00;;;;;;5044481;28;20203;-75
2023/04/06 10:28:50;;;;;;;4.57;4.22;;;28.50;30.00;;;;;;5047049;28;20179;-76
2023/04/06 10:31:27;;;;;;;3.70;3.40;;;28.50;29.70;;;;;;5052511;28;20583;-76
2023/04/06 10:33:57;;;;;;;4.38;4.07;;;28.90;29.70;;;;;;5050384;28;20198;-74
2023/04/06 10:36:26;;;;;;;4.22;3.92;;;29.60;29.60;;;;;;5048454;28;20188;-73
2023/04/06 10:38:59;;;;;;;4.20;3.90;;;30.30;29.20;;;;;;5047671;28;20190;-73
2023/04/06 10:41:36;;;;;;;4.53;4.22;;;30.10;29.00;;;;;;5049588;28;20172;-73
2023/04/06 10:44:02;;;;;;;3.88;3.63;;;30.60;28.90;;;;;;5052350;28;20277;-74
2023/04/06 10:46:33;;;;;;;3.97;3.67;;;31.10;28.80;;;;;;5050736;28;20297;-74
2023/04/06 10:49:10;;;;;;;4.38;3.88;;;31.60;27.40;;;;;;5030406;28;20179;-73
2023/04/06 10:51:38;;;;;;;4.25;3.90;;;31.30;28.00;;;;;;5055042;28;20195;-74
2023/04/06 10:54:06;;;;;;;3.97;3.78;;;31.10;28.00;;;;;;5042001;28;20202;-74
2023/04/06 10:56:36;;;;;;;4.47;4.07;;;30.70;27.80;;;;;;5051634;28;20175;-73
2023/04/06 10:59:02;;;;;;;3.83;3.63;;;31.10;27.90;;;;;;5047466;28;20240;-74
2023/04/06 11:01:27;;;;;;;4.32;3.92;;;31.50;27.60;;;;;;5046909;28;20176;-74
2023/04/06 11:03:55;;;;;;;4.70;4.30;;;30.90;28.30;;;;;;5047909;28;20278;-73
2023/04/06 11:06:26;;;;;;;4.82;4.43;;;30.70;27.70;;;;;;5049988;28;20568;-77
2023/04/06 11:08:53;;;;;;;4.47;4.18;;;30.70;27.90;;;;;;5046714;28;20180;-75
2023/04/06 11:11:21;;;;;;;4.72;4.43;;;29.60;27.60;;;;;;5048584;28;20229;-75
2023/04/06 11:13:49;;;;;;;4.32;4.03;;;29.00;28.20;;;;;;5046754;28;20215;-75
2023/04/06 11:16:20;;;;;;;4.95;4.32;;;29.20;28.20;;;;;;5049199;28;20183;-74
2023/04/06 11:19:16;;;;;;;4.32;4.03;;;29.50;28.00;;;;;;5045879;28;20369;-74
2023/04/06 11:21:49;;;;;;;5.32;4.93;;;29.10;27.50;;;;;;5044797;28;20581;-75
2023/04/06 11:24:16;;;;;;;4.78;4.35;;;29.00;28.00;;;;;;5046129;28;20675;-73
2023/04/06 11:26:51;;;;;;;4.35;3.97;;;29.30;30.00;;;;;;5050253;28;20268;-73
2023/04/06 11:29:27;;;;;;;4.25;4.05;;;30.20;27.80;;;;;;5044779;28;20279;-73
2023/04/06 11:32:07;;;;;;;4.97;4.57;;;31.00;27.90;;;;;;5046117;28;20719;-73
2023/04/06 11:34:38;;;;;;;5.03;4.63;;;29.90;28.10;;;;;;5048429;28;20698;-73
2023/04/06 11:37:13;;;;;;;4.53;4.22;;;29.00;28.60;;;;;;5031293;28;20175;-73
2023/04/06 11:39:42;;;;;;;4.70;4.30;;;28.00;29.00;;;;;;5048213;28;20693;-73
2023/04/06 11:42:09;;;;;;;5.25;4.85;;;27.50;29.30;;;;;;5050155;28;20182;-73
2023/04/06 11:44:40;;;;;;;5.00;4.70;;;27.10;29.60;;;;;;5045328;28;20736;-73
2023/04/06 11:47:08;;;;;;;5.13;4.72;;;27.70;29.10;;;;;;5047068;28;20214;-74
2023/04/06 11:49:37;;;;;;;6.53;4.40;;;27.70;29.00;;;;;;5037236;28;20223;-74
2023/04/06 11:52:13;;;;;;;4.55;4.22;;;26.30;28.80;;;;;;5047440;28;20210;-73
2023/04/06 11:54:40;;;;;;;5.13;4.68;;;25.10;30.30;;;;;;5039924;28;20183;-73
2023/04/06 11:57:07;;;;;;;4.50;4.10;;;26.00;30.20;;;;;;5048476;28;20179;-73
2023/04/06 11:59:33;;;;;;;4.57;4.18;;;27.00;29.10;;;;;;5041644;28;20176;-75
2023/04/06 12:02:00;;;;;;;4.95;4.55;;;26.20;29.10;;;;;;5043173;28;20587;-75
2023/04/06 12:04:26;;;;;;;4.72;4.32;;;25.50;30.30;;;;;;5042791;28;20196;-75
2023/04/06 12:06:52;;;;;;;4.68;4.32;;;25.30;31.90;;;;;;5038135;28;20215;-75
2023/04/06 12:09:18;;;;;;;5.60;4.80;;;26.10;30.80;;;;;;5041574;28;20172;-76
2023/04/06 12:11:44;;;;;;;5.05;4.65;;;26.40;29.30;;;;;;5052578;28;20580;-76
2023/04/06 12:14:10;;;;;;;7.97;5.00;;;25.30;31.30;;;;;;5046121;28;20203;-76
2023/04/06 12:16:36;;;;;;;5.03;4.53;;;25.50;30.20;;;;;;5040775;28;20615;-76
2023/04/06 12:19:02;;;;;;;5.28;4.78;;;24.70;31.30;;;;;;5050319;28;20214;-76
2023/04/06 12:21:28;;;;;;;5.90;5.13;;;24.90;32.50;;;;;;5052328;28;20221;-74
2023/04/06 12:23:54;;;;;;;5.70;5.15;;;25.40;30.90;;;;;;5031051;28;20199;-73
2023/04/06 12:26:21;;;;;;;5.82;4.72;;;25.40;30.90;;;;;;5040838;28;20757;-73
2023/04/06 12:28:47;;;;;;;5.47;4.97;;;24.70;32.10;;;;;;5049365;28;20194;-74
2023/04/06 12:31:22;;;;;;;4.90;4.50;;;24.20;33.50;;;;;;5025282;28;20189;-75
2023/04/06 12:33:51;;;;;;;5.20;4.72;;;23.90;32.60;;;;;;5047635;28;20199;-75
2023/04/06 12:36:19;;;;;;;5.90;4.60;;;24.20;33.10;;;;;;5042927;28;20241;-74
2023/04/06 12:38:46;;;;;;;5.25;4.88;;;25.10;33.10;;;;;;5041324;28;20189;-74
2023/04/06 12:41:12;;;;;;;5.05;4.65;;;26.40;31.00;;;;;;5042242;28;20186;-74
2023/04/06 12:43:39;;;;;;;5.05;4.55;;;27.10;30.00;;;;;;5044786;28;20579;-74
2023/04/06 12:46:05;;;;;;;4.78;4.32;;;27.60;29.30;;;;;;5044782;28;20199;-74
2023/04/06 12:48:32;;;;;;;5.07;4.68;;;26.90;30.30;;;;;;5045901;28;20203;-73